Castle Airport Merced US
ICAO: KMER
IATA: MER
Category: Medium
Scheduled Services: No

Elevation: 191 ft
TransAlt. 18000 ft.

Airport Communications:
NORCAL APP/DEP:120.95
AWO 3:124.475
CTAF/UNICOM:123.075

KMER Zoom In..

If you have problems with the map follow the link
https://www.worldairports.se/pages/airport.php?
ICAO=KMER

Runways:

(A) RW 13 length 11802 ft width 150 ft
---- / hdg 126

(B) RW 31 length 11802 ft width 150 ft
ILS 109.50 / hdg 306

Location; KMER
Day. 17 / Time. 02.45 Zulu
* Altimeter: 29.98
* Temperature: 07° c. 44.6°f.
* Wind from: 000° Speed 00 kn.
Dewpoint: 01° c.
Visibility: 1 Statute Miles.
Clouds: Clear (manual report).
Conditions: Smoke.

KMER 170245Z 00000KT 1SM FU SKC 07/01 A2998


Wind - Calm.

 
 
jpsmedia.com for Web Design worldairports.se 2018   terms of use